sensor_id;sensor_type;location;lat;lon;timestamp;pressure;altitude;pressure_sealevel;temperature;humidity
62436;BME280;48480;50.252;18.848;2023-05-20T00:01:21;99554.21;;;10.86;85.33
62436;BME280;48480;50.252;18.848;2023-05-20T00:04:05;99553.86;;;10.81;85.48
62436;BME280;48480;50.252;18.848;2023-05-20T00:06:49;99557.77;;;10.81;85.67
62436;BME280;48480;50.252;18.848;2023-05-20T00:09:34;99558.09;;;10.82;85.67
62436;BME280;48480;50.252;18.848;2023-05-20T00:12:18;99554.89;;;10.80;85.68
62436;BME280;48480;50.252;18.848;2023-05-20T00:15:02;99561.36;;;10.74;85.82
62436;BME280;48480;50.252;18.848;2023-05-20T00:17:46;99558.23;;;10.67;86.08
62436;BME280;48480;50.252;18.848;2023-05-20T00:20:31;99559.02;;;10.61;86.25
62436;BME280;48480;50.252;18.848;2023-05-20T00:23:15;99553.52;;;10.59;86.46
62436;BME280;48480;50.252;18.848;2023-05-20T00:25:59;99551.60;;;10.61;86.52
62436;BME280;48480;50.252;18.848;2023-05-20T00:28:43;99548.70;;;10.65;86.40
62436;BME280;48480;50.252;18.848;2023-05-20T00:31:27;99550.58;;;10.66;86.39
62436;BME280;48480;50.252;18.848;2023-05-20T00:34:11;99547.48;;;10.65;86.51
62436;BME280;48480;50.252;18.848;2023-05-20T00:36:55;99545.86;;;10.61;86.60
62436;BME280;48480;50.252;18.848;2023-05-20T00:39:39;99547.35;;;10.62;86.53
62436;BME280;48480;50.252;18.848;2023-05-20T00:42:27;99544.08;;;10.62;86.51
62436;BME280;48480;50.252;18.848;2023-05-20T00:45:11;99545.84;;;10.62;86.54
62436;BME280;48480;50.252;18.848;2023-05-20T00:47:56;99543.94;;;10.67;86.57
62436;BME280;48480;50.252;18.848;2023-05-20T00:50:42;99543.92;;;10.75;86.49
62436;BME280;48480;50.252;18.848;2023-05-20T00:53:26;99541.86;;;10.80;86.29
62436;BME280;48480;50.252;18.848;2023-05-20T00:56:10;99542.60;;;10.79;86.25
62436;BME280;48480;50.252;18.848;2023-05-20T00:58:55;99539.50;;;10.78;86.22
62436;BME280;48480;50.252;18.848;2023-05-20T01:01:40;99537.02;;;10.78;86.35
62436;BME280;48480;50.252;18.848;2023-05-20T01:04:24;99533.18;;;10.82;86.32
62436;BME280;48480;50.252;18.848;2023-05-20T01:07:08;99530.50;;;10.82;86.03
62436;BME280;48480;50.252;18.848;2023-05-20T01:09:52;99523.19;;;10.82;86.03
62436;BME280;48480;50.252;18.848;2023-05-20T01:12:45;99522.34;;;10.85;86.07
62436;BME280;48480;50.252;18.848;2023-05-20T01:15:31;99521.33;;;10.85;85.95
62436;BME280;48480;50.252;18.848;2023-05-20T01:18:15;99519.66;;;10.81;86.06
62436;BME280;48480;50.252;18.848;2023-05-20T01:21:01;99515.16;;;10.80;86.18
62436;BME280;48480;50.252;18.848;2023-05-20T01:23:46;99516.41;;;10.80;86.19
62436;BME280;48480;50.252;18.848;2023-05-20T01:26:31;99519.41;;;10.80;86.37
62436;BME280;48480;50.252;18.848;2023-05-20T01:29:16;99519.95;;;10.81;86.41
62436;BME280;48480;50.252;18.848;2023-05-20T01:32:04;99517.89;;;10.84;86.40
62436;BME280;48480;50.252;18.848;2023-05-20T01:34:50;99521.74;;;10.89;86.26
62436;BME280;48480;50.252;18.848;2023-05-20T01:37:37;99522.52;;;10.95;86.25
62436;BME280;48480;50.252;18.848;2023-05-20T01:40:22;99526.33;;;10.99;85.95
62436;BME280;48480;50.252;18.848;2023-05-20T01:43:07;99522.04;;;10.98;85.87
62436;BME280;48480;50.252;18.848;2023-05-20T01:45:51;99522.66;;;11.00;85.91
62436;BME280;48480;50.252;18.848;2023-05-20T01:48:35;99518.34;;;10.99;85.72
62436;BME280;48480;50.252;18.848;2023-05-20T01:51:21;99519.86;;;11.00;85.78
62436;BME280;48480;50.252;18.848;2023-05-20T01:54:05;99524.27;;;11.05;85.71
62436;BME280;48480;50.252;18.848;2023-05-20T01:56:49;99525.16;;;11.05;85.45
62436;BME280;48480;50.252;18.848;2023-05-20T01:59:33;99526.23;;;11.06;85.37
62436;BME280;48480;50.252;18.848;2023-05-20T02:02:17;99520.82;;;11.08;85.36
62436;BME280;48480;50.252;18.848;2023-05-20T02:05:01;99513.45;;;11.13;85.30
62436;BME280;48480;50.252;18.848;2023-05-20T02:07:45;99510.52;;;11.11;85.04
62436;BME280;48480;50.252;18.848;2023-05-20T02:10:29;99513.50;;;11.05;85.05
62436;BME280;48480;50.252;18.848;2023-05-20T02:13:13;99515.63;;;11.04;85.17
62436;BME280;48480;50.252;18.848;2023-05-20T02:15:57;99515.36;;;11.03;85.22
62436;BME280;48480;50.252;18.848;2023-05-20T02:18:41;99519.50;;;11.03;85.18
62436;BME280;48480;50.252;18.848;2023-05-20T02:21:25;99523.14;;;11.04;85.08
62436;BME280;48480;50.252;18.848;2023-05-20T02:24:09;99525.68;;;11.06;85.16
62436;BME280;48480;50.252;18.848;2023-05-20T02:26:53;99528.73;;;11.10;85.07
62436;BME280;48480;50.252;18.848;2023-05-20T02:29:38;99535.64;;;11.08;84.80
62436;BME280;48480;50.252;18.848;2023-05-20T02:32:22;99535.98;;;11.08;84.92
62436;BME280;48480;50.252;18.848;2023-05-20T02:35:10;99537.40;;;11.13;84.89
62436;BME280;48480;50.252;18.848;2023-05-20T02:37:54;99537.17;;;11.14;84.72
62436;BME280;48480;50.252;18.848;2023-05-20T02:40:38;99534.70;;;11.13;84.72
62436;BME280;48480;50.252;18.848;2023-05-20T02:43:22;99529.36;;;11.12;84.67
62436;BME280;48480;50.252;18.848;2023-05-20T02:46:06;99528.50;;;11.07;84.63
62436;BME280;48480;50.252;18.848;2023-05-20T02:48:50;99533.46;;;10.99;84.78
62436;BME280;48480;50.252;18.848;2023-05-20T02:51:35;99533.62;;;10.96;85.03
62436;BME280;48480;50.252;18.848;2023-05-20T02:54:19;99535.13;;;10.96;85.15
62436;BME280;48480;50.252;18.848;2023-05-20T02:57:03;99536.83;;;10.94;85.04
62436;BME280;48480;50.252;18.848;2023-05-20T02:59:48;99535.66;;;10.95;85.30
62436;BME280;48480;50.252;18.848;2023-05-20T03:02:32;99539.05;;;10.99;85.12
62436;BME280;48480;50.252;18.848;2023-05-20T03:05:17;99540.35;;;11.02;85.10
62436;BME280;48480;50.252;18.848;2023-05-20T03:08:01;99539.04;;;11.04;85.08
62436;BME280;48480;50.252;18.848;2023-05-20T03:10:45;99537.68;;;11.04;84.94
62436;BME280;48480;50.252;18.848;2023-05-20T03:13:28;99540.10;;;11.01;84.90
62436;BME280;48480;50.252;18.848;2023-05-20T03:16:12;99542.40;;;10.98;85.04
62436;BME280;48480;50.252;18.848;2023-05-20T03:18:56;99540.48;;;10.93;85.21
62436;BME280;48480;50.252;18.848;2023-05-20T03:21:40;99538.80;;;10.86;85.38
62436;BME280;48480;50.252;18.848;2023-05-20T03:24:27;99540.36;;;10.83;85.74
62436;BME280;48480;50.252;18.848;2023-05-20T03:27:11;99541.85;;;10.73;86.06
62436;BME280;48480;50.252;18.848;2023-05-20T03:29:55;99547.35;;;10.70;86.30
62436;BME280;48480;50.252;18.848;2023-05-20T03:32:39;99552.25;;;10.69;86.42
62436;BME280;48480;50.252;18.848;2023-05-20T03:35:23;99551.66;;;10.69;86.71
62436;BME280;48480;50.252;18.848;2023-05-20T03:38:07;99546.65;;;10.74;86.88
62436;BME280;48480;50.252;18.848;2023-05-20T03:40:51;99545.55;;;10.76;86.89
62436;BME280;48480;50.252;18.848;2023-05-20T03:43:35;99544.17;;;10.79;87.01
62436;BME280;48480;50.252;18.848;2023-05-20T03:46:19;99545.45;;;10.79;87.04
62436;BME280;48480;50.252;18.848;2023-05-20T03:49:03;99541.94;;;10.78;87.08
62436;BME280;48480;50.252;18.848;2023-05-20T03:51:48;99544.66;;;10.75;87.23
62436;BME280;48480;50.252;18.848;2023-05-20T03:54:32;99542.29;;;10.68;87.53
62436;BME280;48480;50.252;18.848;2023-05-20T03:57:18;99543.44;;;10.66;87.75
62436;BME280;48480;50.252;18.848;2023-05-20T04:00:03;99544.90;;;10.69;87.85
62436;BME280;48480;50.252;18.848;2023-05-20T04:02:53;99544.17;;;10.71;88.00
62436;BME280;48480;50.252;18.848;2023-05-20T04:05:38;99541.38;;;10.74;88.15
62436;BME280;48480;50.252;18.848;2023-05-20T04:08:21;99542.24;;;10.75;88.17
62436;BME280;48480;50.252;18.848;2023-05-20T04:11:08;99537.55;;;10.72;88.21
62436;BME280;48480;50.252;18.848;2023-05-20T04:13:52;99534.76;;;10.72;88.35
62436;BME280;48480;50.252;18.848;2023-05-20T04:16:37;99538.35;;;10.73;88.51
62436;BME280;48480;50.252;18.848;2023-05-20T04:19:21;99543.17;;;10.77;88.51
62436;BME280;48480;50.252;18.848;2023-05-20T04:22:06;99546.55;;;10.85;88.61
62436;BME280;48480;50.252;18.848;2023-05-20T04:24:50;99549.74;;;10.90;88.39
62436;BME280;48480;50.252;18.848;2023-05-20T04:27:34;99555.77;;;10.94;88.17
62436;BME280;48480;50.252;18.848;2023-05-20T04:30:20;99559.84;;;10.99;88.14
62436;BME280;48480;50.252;18.848;2023-05-20T04:33:04;99557.25;;;11.03;87.98
62436;BME280;48480;50.252;18.848;2023-05-20T04:35:48;99556.80;;;11.07;87.88
62436;BME280;48480;50.252;18.848;2023-05-20T04:38:32;99550.77;;;11.05;87.78
62436;BME280;48480;50.252;18.848;2023-05-20T04:41:16;99544.36;;;11.03;87.90
62436;BME280;48480;50.252;18.848;2023-05-20T04:44:01;99544.53;;;11.02;88.02
62436;BME280;48480;50.252;18.848;2023-05-20T04:46:46;99547.03;;;11.04;88.09
62436;BME280;48480;50.252;18.848;2023-05-20T04:49:31;99546.73;;;11.03;88.19
62436;BME280;48480;50.252;18.848;2023-05-20T04:52:15;99547.70;;;11.03;88.33
62436;BME280;48480;50.252;18.848;2023-05-20T04:54:59;99549.15;;;11.06;88.37
62436;BME280;48480;50.252;18.848;2023-05-20T04:57:44;99548.44;;;11.11;88.41
62436;BME280;48480;50.252;18.848;2023-05-20T05:00:28;99545.59;;;11.18;88.30
62436;BME280;48480;50.252;18.848;2023-05-20T05:03:12;99550.70;;;11.21;88.11
62436;BME280;48480;50.252;18.848;2023-05-20T05:05:59;99552.77;;;11.26;88.12
62436;BME280;48480;50.252;18.848;2023-05-20T05:08:43;99556.46;;;11.33;88.02
62436;BME280;48480;50.252;18.848;2023-05-20T05:11:28;99558.77;;;11.41;87.89
62436;BME280;48480;50.252;18.848;2023-05-20T05:14:12;99558.09;;;11.50;87.63
62436;BME280;48480;50.252;18.848;2023-05-20T05:16:56;99550.38;;;11.52;87.30
62436;BME280;48480;50.252;18.848;2023-05-20T05:19:40;99546.06;;;11.55;87.50
62436;BME280;48480;50.252;18.848;2023-05-20T05:22:24;99538.73;;;11.59;87.35
62436;BME280;48480;50.252;18.848;2023-05-20T05:25:09;99548.34;;;11.73;87.05
62436;BME280;48480;50.252;18.848;2023-05-20T05:27:53;99548.34;;;11.79;87.00
62436;BME280;48480;50.252;18.848;2023-05-20T05:30:38;99544.73;;;11.90;86.77
62436;BME280;48480;50.252;18.848;2023-05-20T05:33:22;99544.27;;;11.95;86.24
62436;BME280;48480;50.252;18.848;2023-05-20T05:36:06;99541.58;;;11.97;86.32
62436;BME280;48480;50.252;18.848;2023-05-20T05:38:50;99538.63;;;12.06;86.17
62436;BME280;48480;50.252;18.848;2023-05-20T05:41:34;99543.09;;;12.15;85.94
62436;BME280;48480;50.252;18.848;2023-05-20T05:44:19;99544.38;;;12.23;85.70
62436;BME280;48480;50.252;18.848;2023-05-20T05:47:03;99541.41;;;12.28;85.34
62436;BME280;48480;50.252;18.848;2023-05-20T05:49:48;99539.67;;;12.31;85.16
62436;BME280;48480;50.252;18.848;2023-05-20T05:52:32;99542.36;;;12.34;84.96
62436;BME280;48480;50.252;18.848;2023-05-20T05:55:16;99546.35;;;12.34;84.71
62436;BME280;48480;50.252;18.848;2023-05-20T05:58:00;99543.81;;;12.35;84.92
62436;BME280;48480;50.252;18.848;2023-05-20T06:00:45;99543.21;;;12.42;84.81
62436;BME280;48480;50.252;18.848;2023-05-20T06:03:30;99547.77;;;12.52;84.52
62436;BME280;48480;50.252;18.848;2023-05-20T06:06:13;99548.05;;;12.56;84.24
62436;BME280;48480;50.252;18.848;2023-05-20T06:08:57;99544.02;;;12.59;84.08
62436;BME280;48480;50.252;18.848;2023-05-20T06:11:41;99543.34;;;12.63;84.11
62436;BME280;48480;50.252;18.848;2023-05-20T06:14:27;99540.77;;;12.67;83.71
62436;BME280;48480;50.252;18.848;2023-05-20T06:17:11;99533.83;;;12.69;83.52
62436;BME280;48480;50.252;18.848;2023-05-20T06:19:55;99532.27;;;12.72;83.43
62436;BME280;48480;50.252;18.848;2023-05-20T06:22:39;99528.83;;;12.71;83.44
62436;BME280;48480;50.252;18.848;2023-05-20T06:25:24;99523.48;;;12.75;83.52
62436;BME280;48480;50.252;18.848;2023-05-20T06:28:08;99525.38;;;12.77;83.61
62436;BME280;48480;50.252;18.848;2023-05-20T06:30:53;99522.45;;;12.83;83.46
62436;BME280;48480;50.252;18.848;2023-05-20T06:33:38;99529.21;;;12.86;83.07
62436;BME280;48480;50.252;18.848;2023-05-20T06:36:22;99527.68;;;12.84;82.84
62436;BME280;48480;50.252;18.848;2023-05-20T06:39:06;99520.90;;;12.79;82.94
62436;BME280;48480;50.252;18.848;2023-05-20T06:41:55;99526.23;;;12.79;82.97
62436;BME280;48480;50.252;18.848;2023-05-20T06:44:38;99528.01;;;12.79;82.84
62436;BME280;48480;50.252;18.848;2023-05-20T06:47:23;99525.05;;;12.76;82.90
62436;BME280;48480;50.252;18.848;2023-05-20T06:50:07;99531.02;;;12.89;82.94
62436;BME280;48480;50.252;18.848;2023-05-20T06:52:52;99534.33;;;13.02;82.81
62436;BME280;48480;50.252;18.848;2023-05-20T06:55:37;99534.98;;;13.15;82.32
62436;BME280;48480;50.252;18.848;2023-05-20T06:58:22;99532.85;;;13.27;82.11
62436;BME280;48480;50.252;18.848;2023-05-20T07:01:06;99534.74;;;13.43;81.95
62436;BME280;48480;50.252;18.848;2023-05-20T07:03:50;99532.95;;;13.56;81.29
62436;BME280;48480;50.252;18.848;2023-05-20T07:06:34;99531.95;;;13.64;80.80
62436;BME280;48480;50.252;18.848;2023-05-20T07:09:18;99527.80;;;13.66;80.44
62436;BME280;48480;50.252;18.848;2023-05-20T07:12:02;99527.27;;;13.70;80.41
62436;BME280;48480;50.252;18.848;2023-05-20T07:14:47;99522.83;;;13.70;80.33
62436;BME280;48480;50.252;18.848;2023-05-20T07:17:31;99519.70;;;13.77;80.37
62436;BME280;48480;50.252;18.848;2023-05-20T07:20:15;99515.24;;;13.84;80.13
62436;BME280;48480;50.252;18.848;2023-05-20T07:23:00;99514.80;;;13.90;79.98
62436;BME280;48480;50.252;18.848;2023-05-20T07:25:46;99511.33;;;13.95;79.76
62436;BME280;48480;50.252;18.848;2023-05-20T07:28:30;99504.07;;;14.00;79.74
62436;BME280;48480;50.252;18.848;2023-05-20T07:31:15;99514.23;;;14.14;79.56
62436;BME280;48480;50.252;18.848;2023-05-20T07:33:59;99510.52;;;14.18;79.02
62436;BME280;48480;50.252;18.848;2023-05-20T07:36:43;99508.81;;;14.20;78.94
62436;BME280;48480;50.252;18.848;2023-05-20T07:39:28;99511.04;;;14.25;78.73
62436;BME280;48480;50.252;18.848;2023-05-20T07:42:12;99516.64;;;14.32;78.76
62436;BME280;48480;50.252;18.848;2023-05-20T07:44:56;99518.52;;;14.43;78.37
62436;BME280;48480;50.252;18.848;2023-05-20T07:47:40;99513.59;;;14.47;78.09
62436;BME280;48480;50.252;18.848;2023-05-20T07:50:24;99512.72;;;14.51;78.05
62436;BME280;48480;50.252;18.848;2023-05-20T07:53:08;99515.73;;;14.61;77.81
62436;BME280;48480;50.252;18.848;2023-05-20T07:55:53;99505.95;;;14.65;77.54
62436;BME280;48480;50.252;18.848;2023-05-20T07:58:40;99509.42;;;14.75;77.47
62436;BME280;48480;50.252;18.848;2023-05-20T08:01:25;99506.55;;;14.79;77.13
62436;BME280;48480;50.252;18.848;2023-05-20T08:04:09;99499.90;;;14.88;76.86
62436;BME280;48480;50.252;18.848;2023-05-20T08:06:53;99497.29;;;15.06;76.76
62436;BME280;48480;50.252;18.848;2023-05-20T08:09:37;99496.39;;;15.25;75.87
62436;BME280;48480;50.252;18.848;2023-05-20T08:12:22;99494.27;;;15.40;75.67
62436;BME280;48480;50.252;18.848;2023-05-20T08:15:06;99488.41;;;15.53;74.92
62436;BME280;48480;50.252;18.848;2023-05-20T08:17:51;99481.18;;;15.60;74.91
62436;BME280;48480;50.252;18.848;2023-05-20T08:20:35;99477.80;;;15.66;74.91
62436;BME280;48480;50.252;18.848;2023-05-20T08:23:20;99472.85;;;15.77;74.09
62436;BME280;48480;50.252;18.848;2023-05-20T08:26:04;99473.43;;;15.84;74.08
62436;BME280;48480;50.252;18.848;2023-05-20T08:28:47;99472.59;;;16.04;74.29
62436;BME280;48480;50.252;18.848;2023-05-20T08:31:31;99466.23;;;16.21;73.15
62436;BME280;48480;50.252;18.848;2023-05-20T08:34:16;99470.02;;;16.33;72.48
62436;BME280;48480;50.252;18.848;2023-05-20T08:37:00;99472.52;;;16.44;72.57
62436;BME280;48480;50.252;18.848;2023-05-20T08:39:44;99475.61;;;16.61;72.35
62436;BME280;48480;50.252;18.848;2023-05-20T08:42:30;99479.65;;;16.78;71.47
62436;BME280;48480;50.252;18.848;2023-05-20T08:45:17;99477.40;;;16.90;71.01
62436;BME280;48480;50.252;18.848;2023-05-20T08:48:02;99479.70;;;17.01;70.58
62436;BME280;48480;50.252;18.848;2023-05-20T08:50:51;99479.02;;;17.07;69.63
62436;BME280;48480;50.252;18.848;2023-05-20T08:53:35;99475.23;;;17.28;69.52
62436;BME280;48480;50.252;18.848;2023-05-20T08:56:20;99475.84;;;17.63;68.98
62436;BME280;48480;50.252;18.848;2023-05-20T08:59:07;99474.65;;;18.00;68.41
62436;BME280;48480;50.252;18.848;2023-05-20T09:01:51;99475.17;;;18.20;67.33
62436;BME280;48480;50.252;18.848;2023-05-20T09:04:36;99473.60;;;18.26;67.23
62436;BME280;48480;50.252;18.848;2023-05-20T09:07:29;99476.30;;;18.36;66.75
62436;BME280;48480;50.252;18.848;2023-05-20T09:10:13;99473.77;;;18.45;66.56
62436;BME280;48480;50.252;18.848;2023-05-20T09:13:01;99473.37;;;18.50;66.04
62436;BME280;48480;50.252;18.848;2023-05-20T09:15:46;99472.55;;;18.48;66.15
62436;BME280;48480;50.252;18.848;2023-05-20T09:18:30;99473.05;;;18.47;65.81
62436;BME280;48480;50.252;18.848;2023-05-20T09:21:14;99472.54;;;18.48;65.76
62436;BME280;48480;50.252;18.848;2023-05-20T09:24:00;99470.77;;;18.49;65.62
62436;BME280;48480;50.252;18.848;2023-05-20T09:26:45;99471.65;;;18.52;65.41
62436;BME280;48480;50.252;18.848;2023-05-20T09:29:32;99471.47;;;18.57;65.41
62436;BME280;48480;50.252;18.848;2023-05-20T09:32:17;99462.40;;;18.68;65.08
62436;BME280;48480;50.252;18.848;2023-05-20T09:35:04;99463.18;;;18.79;64.21
62436;BME280;48480;50.252;18.848;2023-05-20T09:37:54;99461.40;;;18.90;63.82
62436;BME280;48480;50.252;18.848;2023-05-20T09:40:40;99460.38;;;19.00;63.26
62436;BME280;48480;50.252;18.848;2023-05-20T09:43:26;99450.77;;;19.17;63.12
62436;BME280;48480;50.252;18.848;2023-05-20T09:46:11;99448.02;;;19.43;62.71
62436;BME280;48480;50.252;18.848;2023-05-20T09:48:56;99448.81;;;19.77;62.68
62436;BME280;48480;50.252;18.848;2023-05-20T09:51:42;99447.57;;;20.15;61.58
62436;BME280;48480;50.252;18.848;2023-05-20T09:54:27;99445.20;;;20.31;60.80
62436;BME280;48480;50.252;18.848;2023-05-20T09:57:12;99441.11;;;20.48;61.23
62436;BME280;48480;50.252;18.848;2023-05-20T09:59:57;99444.91;;;20.81;59.52
62436;BME280;48480;50.252;18.848;2023-05-20T10:02:46;99442.59;;;21.02;59.26
62436;BME280;48480;50.252;18.848;2023-05-20T10:05:35;99442.54;;;21.25;58.68
62436;BME280;48480;50.252;18.848;2023-05-20T10:08:35;99444.71;;;21.24;58.55
62436;BME280;48480;50.252;18.848;2023-05-20T10:14:54;99445.66;;;20.83;58.57
62436;BME280;48480;50.252;18.848;2023-05-20T10:18:03;99448.91;;;20.59;58.45
62436;BME280;48480;50.252;18.848;2023-05-20T10:20:49;99445.36;;;20.31;58.55
62436;BME280;48480;50.252;18.848;2023-05-20T10:23:34;99439.90;;;20.20;59.43
62436;BME280;48480;50.252;18.848;2023-05-20T10:26:18;99437.96;;;20.39;59.30
62436;BME280;48480;50.252;18.848;2023-05-20T10:29:16;99433.39;;;20.58;58.73
62436;BME280;48480;50.252;18.848;2023-05-20T10:32:01;99427.02;;;20.73;58.36
62436;BME280;48480;50.252;18.848;2023-05-20T10:34:48;99421.45;;;20.92;57.80
62436;BME280;48480;50.252;18.848;2023-05-20T10:37:40;99429.46;;;20.95;57.32
62436;BME280;48480;50.252;18.848;2023-05-20T10:40:26;99425.20;;;20.84;57.53
62436;BME280;48480;50.252;18.848;2023-05-20T10:43:13;99420.59;;;20.71;57.93
62436;BME280;48480;50.252;18.848;2023-05-20T10:45:57;99422.33;;;20.61;58.28
62436;BME280;48480;50.252;18.848;2023-05-20T10:48:42;99420.04;;;20.63;58.14
62436;BME280;48480;50.252;18.848;2023-05-20T10:51:28;99415.20;;;20.70;58.10
62436;BME280;48480;50.252;18.848;2023-05-20T10:54:12;99416.13;;;20.74;57.72
62436;BME280;48480;50.252;18.848;2023-05-20T10:56:57;99414.98;;;20.91;57.79
62436;BME280;48480;50.252;18.848;2023-05-20T10:59:41;99415.48;;;21.03;57.27
62436;BME280;48480;50.252;18.848;2023-05-20T11:02:26;99413.45;;;20.89;57.46
62436;BME280;48480;50.252;18.848;2023-05-20T11:05:11;99414.93;;;20.85;57.70
62436;BME280;48480;50.252;18.848;2023-05-20T11:08:09;99409.39;;;20.88;57.60
62436;BME280;48480;50.252;18.848;2023-05-20T11:10:57;99408.00;;;20.98;57.34
62436;BME280;48480;50.252;18.848;2023-05-20T11:13:42;99404.75;;;20.99;57.09
62436;BME280;48480;50.252;18.848;2023-05-20T11:16:26;99405.64;;;21.01;57.01
62436;BME280;48480;50.252;18.848;2023-05-20T11:19:14;99398.20;;;21.07;57.25
62436;BME280;48480;50.252;18.848;2023-05-20T11:21:59;99392.88;;;21.11;56.51
62436;BME280;48480;50.252;18.848;2023-05-20T11:24:43;99386.61;;;21.05;57.07
62436;BME280;48480;50.252;18.848;2023-05-20T11:27:27;99384.31;;;21.16;57.07
62436;BME280;48480;50.252;18.848;2023-05-20T11:30:12;99382.66;;;21.33;56.81
62436;BME280;48480;50.252;18.848;2023-05-20T11:33:02;99380.58;;;21.49;56.38
62436;BME280;48480;50.252;18.848;2023-05-20T11:35:49;99380.17;;;21.43;55.92
62436;BME280;48480;50.252;18.848;2023-05-20T11:38:33;99382.31;;;21.14;55.68
62436;BME280;48480;50.252;18.848;2023-05-20T11:41:22;99379.48;;;20.77;56.17
62436;BME280;48480;50.252;18.848;2023-05-20T11:44:10;99370.11;;;20.40;57.21
62436;BME280;48480;50.252;18.848;2023-05-20T11:47:00;99365.67;;;20.25;57.99
62436;BME280;48480;50.252;18.848;2023-05-20T11:49:47;99364.91;;;20.17;58.70
62436;BME280;48480;50.252;18.848;2023-05-20T11:52:32;99357.99;;;20.14;59.06
62436;BME280;48480;50.252;18.848;2023-05-20T11:55:16;99357.18;;;20.13;59.71
62436;BME280;48480;50.252;18.848;2023-05-20T11:58:02;99353.65;;;20.11;59.93
62436;BME280;48480;50.252;18.848;2023-05-20T12:00:46;99347.36;;;20.16;60.44
62436;BME280;48480;50.252;18.848;2023-05-20T12:03:30;99347.81;;;20.30;60.51
62436;BME280;48480;50.252;18.848;2023-05-20T12:06:15;99339.64;;;20.43;60.43
62436;BME280;48480;50.252;18.848;2023-05-20T12:09:04;99343.88;;;20.49;59.98
62436;BME280;48480;50.252;18.848;2023-05-20T12:11:51;99346.38;;;20.53;59.94
62436;BME280;48480;50.252;18.848;2023-05-20T12:14:35;99354.35;;;20.54;59.27
62436;BME280;48480;50.252;18.848;2023-05-20T12:17:20;99343.65;;;20.40;59.58
62436;BME280;48480;50.252;18.848;2023-05-20T12:20:05;99335.80;;;20.40;60.06
62436;BME280;48480;50.252;18.848;2023-05-20T12:22:49;99332.95;;;20.50;59.85
62436;BME280;48480;50.252;18.848;2023-05-20T12:25:34;99329.98;;;20.66;59.38
62436;BME280;48480;50.252;18.848;2023-05-20T12:28:18;99326.42;;;20.68;58.98
62436;BME280;48480;50.252;18.848;2023-05-20T12:31:02;99318.64;;;20.64;58.77
62436;BME280;48480;50.252;18.848;2023-05-20T12:33:46;99314.67;;;20.55;58.96
62436;BME280;48480;50.252;18.848;2023-05-20T12:36:31;99311.23;;;20.54;59.09
62436;BME280;48480;50.252;18.848;2023-05-20T12:39:15;99310.20;;;20.54;59.44
62436;BME280;48480;50.252;18.848;2023-05-20T12:42:01;99308.52;;;20.63;59.81
62436;BME280;48480;50.252;18.848;2023-05-20T12:44:46;99304.98;;;20.74;59.33
62436;BME280;48480;50.252;18.848;2023-05-20T12:47:31;99306.11;;;20.76;59.11
62436;BME280;48480;50.252;18.848;2023-05-20T12:50:15;99306.59;;;20.78;59.42
62436;BME280;48480;50.252;18.848;2023-05-20T12:52:59;99304.12;;;20.83;59.60
62436;BME280;48480;50.252;18.848;2023-05-20T12:55:43;99298.21;;;20.88;59.45
62436;BME280;48480;50.252;18.848;2023-05-20T12:58:27;99296.91;;;20.90;58.48
62436;BME280;48480;50.252;18.848;2023-05-20T13:01:11;99300.70;;;20.89;58.51
62436;BME280;48480;50.252;18.848;2023-05-20T13:03:55;99301.02;;;20.89;58.73
62436;BME280;48480;50.252;18.848;2023-05-20T13:06:39;99303.86;;;20.95;58.92
62436;BME280;48480;50.252;18.848;2023-05-20T13:09:24;99300.95;;;20.98;58.76
62436;BME280;48480;50.252;18.848;2023-05-20T13:12:08;99299.23;;;20.99;58.50
62436;BME280;48480;50.252;18.848;2023-05-20T13:14:53;99298.61;;;21.03;58.80
62436;BME280;48480;50.252;18.848;2023-05-20T13:17:38;99296.39;;;21.10;58.18
62436;BME280;48480;50.252;18.848;2023-05-20T13:20:22;99295.73;;;21.08;57.97
62436;BME280;48480;50.252;18.848;2023-05-20T13:23:07;99296.16;;;21.07;58.05
62436;BME280;48480;50.252;18.848;2023-05-20T13:25:52;99290.70;;;21.06;57.63
62436;BME280;48480;50.252;18.848;2023-05-20T13:28:36;99284.98;;;21.04;58.07
62436;BME280;48480;50.252;18.848;2023-05-20T13:31:20;99281.81;;;21.11;58.45
62436;BME280;48480;50.252;18.848;2023-05-20T13:34:05;99274.17;;;21.21;58.62
62436;BME280;48480;50.252;18.848;2023-05-20T13:36:49;99269.85;;;21.28;58.53
62436;BME280;48480;50.252;18.848;2023-05-20T13:39:33;99273.11;;;21.33;58.33
62436;BME280;48480;50.252;18.848;2023-05-20T13:42:18;99268.38;;;21.40;58.18
62436;BME280;48480;50.252;18.848;2023-05-20T13:45:03;99268.58;;;21.48;57.33
62436;BME280;48480;50.252;18.848;2023-05-20T13:47:47;99269.49;;;21.50;56.94
62436;BME280;48480;50.252;18.848;2023-05-20T13:50:31;99268.02;;;21.51;56.71
62436;BME280;48480;50.252;18.848;2023-05-20T13:53:15;99266.87;;;21.52;56.86
62436;BME280;48480;50.252;18.848;2023-05-20T13:56:00;99263.08;;;21.54;57.22
62436;BME280;48480;50.252;18.848;2023-05-20T13:58:44;99258.91;;;21.58;57.09
62436;BME280;48480;50.252;18.848;2023-05-20T14:01:31;99254.75;;;21.68;56.94
62436;BME280;48480;50.252;18.848;2023-05-20T14:04:16;99247.13;;;21.77;55.81
62436;BME280;48480;50.252;18.848;2023-05-20T14:07:00;99246.48;;;21.81;55.41
62436;BME280;48480;50.252;18.848;2023-05-20T14:09:44;99244.29;;;21.81;55.15
62436;BME280;48480;50.252;18.848;2023-05-20T14:12:28;99236.44;;;21.83;55.44
62436;BME280;48480;50.252;18.848;2023-05-20T14:15:12;99234.05;;;21.87;55.47
62436;BME280;48480;50.252;18.848;2023-05-20T14:17:57;99227.61;;;21.88;55.43
62436;BME280;48480;50.252;18.848;2023-05-20T14:20:42;99225.31;;;21.93;55.69
62436;BME280;48480;50.252;18.848;2023-05-20T14:23:26;99224.52;;;21.98;55.13
62436;BME280;48480;50.252;18.848;2023-05-20T14:26:10;99225.38;;;21.98;54.91